Capitol Logistics 329


KRIV
March Air Reserve Base
Riverside, California, US
KCLT
Charlotte/Douglas International Airport
Charlotte, North Carolina, US

Route Details

Aircraft Information
Primary: Boeing 767-300BDSF
Backup: Not Available
Route Data
Distance: 1791nm
Sched. Duration: 4h 00m
Avg. Duration: 4h 15m (+15m)
Times Flown: 2
Recm'd Route: TRM J134 DRK J6 IRW KM33G SPKER NEWBB TAZZA FILPZ3
Planned Altitude: 35,000ft
Origin Wx: KRIV 181558Z AUTO 00000KT 10SM CLR 10/07 A3000 RMK AO2 SLP159 T00960067
Dest. Wx: KCLT 181552Z 16005KT 10SM OVC014 13/08 A3021 RMK AO2 SLP227 T01280078 $
Notes:

Financial History
Total Freight: 131,500lbs
Average Load: 65,750lbs/flt
Fuel Used: 80,149lbs
Avg. Fuel Used: 40,075lbs/flt
Fuel Expense: $55,303
Avg. Fuel Expense: $27,651
Avg. Fuel Cost: $0.69/lbs
Total Gross Income: $210,474
Pilot Pay: $468
Total Expenses: $22,835
Total Revenue: $130,327
Average Revenue: $105,237.13